createdAt,value
2019-03-05T00:00:00.398Z,10.90
2019-03-05T00:02:33.293Z,7.83
2019-03-05T00:05:06.759Z,4.20
2019-03-05T00:07:35.360Z,8.10
2019-03-05T00:10:07.781Z,6.17
2019-03-05T00:12:36.700Z,8.80
2019-03-05T00:15:13.612Z,8.43
2019-03-05T00:17:42.181Z,7.57
2019-03-05T00:20:14.730Z,10.03
2019-03-05T00:22:43.340Z,16.33
2019-03-05T00:25:22.705Z,5.80
2019-03-05T00:27:57.253Z,8.40
2019-03-05T00:30:46.248Z,7.30
2019-03-05T00:33:20.795Z,6.87
2019-03-05T00:36:15.892Z,7.90
2019-03-05T00:38:56.400Z,6.53
2019-03-05T00:41:44.820Z,9.20
2019-03-05T00:44:28.439Z,7.57
2019-03-05T00:47:16.622Z,11.20
2019-03-05T00:49:57.249Z,11.63
2019-03-05T00:52:47.062Z,8.90
2019-03-05T00:55:41.487Z,9.47
2019-03-05T00:58:18.803Z,10.83
2019-03-05T01:01:10.060Z,6.40
2019-03-05T01:04:19.117Z,13.00
2019-03-05T01:06:48.376Z,11.03
2019-03-05T01:09:21.553Z,7.00
2019-03-05T01:11:53.411Z,8.77
2019-03-05T01:14:25.781Z,7.30
2019-03-05T01:16:57.344Z,6.10
2019-03-05T01:19:28.720Z,9.23
2019-03-05T01:21:57.305Z,6.30
2019-03-05T01:24:28.888Z,8.43
2019-03-05T01:27:00.572Z,10.33
2019-03-05T01:29:32.742Z,6.90
2019-03-05T01:32:05.715Z,9.60
2019-03-05T01:34:38.907Z,5.37
2019-03-05T01:37:09.119Z,7.57
2019-03-05T01:39:42.635Z,6.77
2019-03-05T01:42:14.422Z,6.53
2019-03-05T01:44:46.104Z,5.70
2019-03-05T01:47:17.440Z,7.03
2019-03-05T01:49:46.095Z,9.17
2019-03-05T01:52:17.365Z,8.73
2019-03-05T01:54:48.944Z,6.37
2019-03-05T01:57:17.502Z,6.80
2019-03-05T01:59:46.428Z,6.40
2019-03-05T02:02:17.963Z,6.97
2019-03-05T02:04:49.348Z,6.10
2019-03-05T02:07:18.569Z,9.37
2019-03-05T02:09:47.146Z,7.37
2019-03-05T02:12:18.458Z,7.00
2019-03-05T02:14:47.031Z,8.07
2019-03-05T02:17:18.338Z,10.90
2019-03-05T02:19:47.248Z,10.03
2019-03-05T02:22:28.075Z,6.57
2019-03-05T02:25:05.704Z,6.67
2019-03-05T02:27:46.517Z,12.23
2019-03-05T02:30:33.378Z,6.13
2019-03-05T02:33:57.169Z,7.87
2019-03-05T02:37:05.941Z,11.20
2019-03-05T02:39:49.653Z,12.73
2019-03-05T02:42:39.419Z,7.87
2019-03-05T02:45:25.799Z,9.43
2019-03-05T02:48:03.683Z,6.17
2019-03-05T02:50:51.869Z,9.70
2019-03-05T02:53:23.491Z,6.97
2019-03-05T02:56:28.237Z,9.30
2019-03-05T02:58:55.913Z,4.60
2019-03-05T03:01:26.794Z,5.13
2019-03-05T03:04:00.154Z,4.97
2019-03-05T03:06:30.161Z,4.33
2019-03-05T03:09:26.090Z,8.13
2019-03-05T03:11:57.401Z,6.70
2019-03-05T03:14:28.664Z,3.30
2019-03-05T03:16:59.958Z,5.00
2019-03-05T03:19:28.529Z,5.23
2019-03-05T03:21:57.075Z,7.43
2019-03-05T03:24:28.514Z,4.83
2019-03-05T03:26:59.835Z,6.37
2019-03-05T03:29:31.095Z,3.80
2019-03-05T03:32:02.364Z,4.57
2019-03-05T03:34:33.691Z,5.93
2019-03-05T03:37:02.239Z,6.97
2019-03-05T03:39:33.810Z,7.50
2019-03-05T03:42:05.319Z,6.50
2019-03-05T03:44:39.385Z,4.53
2019-03-05T03:47:10.817Z,3.97
2019-03-05T03:49:42.309Z,4.67
2019-03-05T03:52:13.612Z,5.33
2019-03-05T03:54:45.039Z,2.93
2019-03-05T03:57:13.798Z,3.37
2019-03-05T03:59:45.453Z,5.80
2019-03-05T04:02:16.926Z,2.83
2019-03-05T04:04:45.639Z,7.27
2019-03-05T04:07:15.020Z,4.50
2019-03-05T04:09:46.340Z,2.60
2019-03-05T04:12:17.817Z,2.63
2019-03-05T04:14:49.129Z,4.20
2019-03-05T04:17:20.771Z,8.63
2019-03-05T04:19:52.358Z,6.70
2019-03-05T04:22:23.929Z,4.40
2019-03-05T04:24:52.497Z,4.70
2019-03-05T04:27:23.789Z,4.60
2019-03-05T04:29:52.358Z,6.80
2019-03-05T04:32:24.079Z,6.17
2019-03-05T04:34:55.545Z,3.20
2019-03-05T04:37:26.955Z,4.33
2019-03-05T04:39:58.533Z,6.20
2019-03-05T04:42:29.906Z,3.37
2019-03-05T04:45:03.122Z,6.00
2019-03-05T04:47:31.732Z,2.63
2019-03-05T04:50:01.983Z,5.50
2019-03-05T04:52:30.589Z,4.00
2019-03-05T04:55:01.966Z,3.90
2019-03-05T04:57:33.898Z,2.63
2019-03-05T05:00:08.806Z,3.40
2019-03-05T05:02:40.247Z,4.30
2019-03-05T05:05:12.571Z,6.07
2019-03-05T05:07:41.264Z,3.10
2019-03-05T05:10:12.682Z,6.17
2019-03-05T05:12:44.456Z,7.80
2019-03-05T05:15:34.157Z,5.80
2019-03-05T05:18:03.078Z,5.50
2019-03-05T05:20:31.801Z,4.53
2019-03-05T05:23:00.416Z,10.37
2019-03-05T05:25:31.905Z,7.30
2019-03-05T05:28:03.199Z,3.43
2019-03-05T05:30:55.406Z,2.70
2019-03-05T05:33:24.075Z,4.03
2019-03-05T05:35:55.574Z,8.17
2019-03-05T05:38:24.457Z,5.93
2019-03-05T05:40:55.986Z,5.60
2019-03-05T05:43:29.597Z,4.50
2019-03-05T05:46:01.156Z,7.03
2019-03-05T05:50:53.647Z,3.43
2019-03-05T05:53:22.194Z,4.47
2019-03-05T05:55:50.824Z,4.77
2019-03-05T05:58:19.380Z,5.73
2019-03-05T06:00:52.492Z,5.83
2019-03-05T06:03:21.107Z,5.40
2019-03-05T06:05:49.739Z,4.53
2019-03-05T06:08:21.239Z,5.23
2019-03-05T06:10:53.344Z,5.30
2019-03-05T06:13:24.789Z,12.90
2019-03-05T06:15:56.137Z,5.20
2019-03-05T06:18:27.408Z,4.33
2019-03-05T06:20:58.996Z,5.90
2019-03-05T06:23:27.610Z,5.03
2019-03-05T06:25:58.911Z,4.97
2019-03-05T06:28:30.604Z,14.60
2019-03-05T06:31:01.865Z,9.13
2019-03-05T06:33:30.498Z,12.50
2019-03-05T06:36:02.019Z,4.33
2019-03-05T06:38:33.512Z,8.63
2019-03-05T06:41:02.786Z,5.83
2019-03-05T06:43:34.040Z,5.73
2019-03-05T06:46:05.598Z,4.43
2019-03-05T06:48:38.820Z,4.60
2019-03-05T06:51:09.031Z,4.50
2019-03-05T06:53:37.638Z,6.90
2019-03-05T06:56:09.292Z,9.40
2019-03-05T06:58:40.613Z,5.47
2019-03-05T07:01:15.161Z,6.70
2019-03-05T07:03:43.729Z,4.53
2019-03-05T07:06:49.978Z,3.53
2019-03-05T07:09:33.703Z,6.17
2019-03-05T07:12:08.233Z,7.00
2019-03-05T07:15:02.210Z,6.73
2019-03-05T07:17:56.606Z,5.40
2019-03-05T07:20:53.908Z,5.47
2019-03-05T07:23:31.405Z,4.40
2019-03-05T07:26:03.050Z,2.50
2019-03-05T07:28:34.363Z,3.77
2019-03-05T07:31:05.724Z,2.83
2019-03-05T07:33:37.393Z,5.40
2019-03-05T07:36:10.488Z,4.70
2019-03-05T07:38:42.222Z,3.33
2019-03-05T07:41:13.868Z,2.50
2019-03-05T07:43:45.458Z,6.67
2019-03-05T07:46:16.691Z,3.27
2019-03-05T07:48:45.256Z,4.10
2019-03-05T07:51:16.892Z,9.57
2019-03-05T07:53:48.407Z,6.10
2019-03-05T07:56:16.954Z,7.03
2019-03-05T07:58:48.272Z,5.77
2019-03-05T08:01:22.543Z,6.30
2019-03-05T08:03:53.219Z,8.00
2019-03-05T08:06:24.812Z,7.47
2019-03-05T08:09:31.013Z,4.53
2019-03-05T08:12:23.382Z,8.10
2019-03-05T08:15:09.607Z,3.13
2019-03-05T08:17:41.088Z,4.47
2019-03-05T08:20:12.775Z,2.90
2019-03-05T08:22:44.042Z,4.73
2019-03-05T08:25:15.370Z,4.40
2019-03-05T08:27:47.247Z,4.23
2019-03-05T08:30:18.786Z,3.10
2019-03-05T08:32:50.415Z,4.67
2019-03-05T08:35:21.854Z,4.90
2019-03-05T08:37:53.428Z,2.10
2019-03-05T08:40:24.904Z,2.37
2019-03-05T08:42:56.892Z,3.03
2019-03-05T08:45:29.763Z,5.97
2019-03-05T08:48:01.125Z,3.17
2019-03-05T08:50:32.406Z,4.90
2019-03-05T08:53:00.954Z,2.30
2019-03-05T08:55:32.884Z,7.73
2019-03-05T08:58:04.628Z,5.90
2019-03-05T09:00:38.056Z,7.27
2019-03-05T09:03:09.634Z,3.07
2019-03-05T09:05:40.930Z,4.87
2019-03-05T09:08:33.830Z,2.70
2019-03-05T09:11:05.184Z,5.80
2019-03-05T09:13:33.988Z,10.23
2019-03-05T09:16:07.835Z,11.17
2019-03-05T09:18:38.875Z,2.47
2019-03-05T09:21:10.417Z,4.53
2019-03-05T09:23:40.981Z,2.37
2019-03-05T09:26:12.287Z,4.90
2019-03-05T09:28:44.035Z,5.43
2019-03-05T09:31:15.265Z,3.83
2019-03-05T09:33:43.820Z,7.70
2019-03-05T09:36:12.639Z,8.43
2019-03-05T09:38:43.865Z,2.60
2019-03-05T09:41:12.427Z,3.53
2019-03-05T09:43:43.705Z,4.43
2019-03-05T09:46:12.298Z,4.00
2019-03-05T09:48:43.679Z,2.63
2019-03-05T09:51:12.300Z,3.33
2019-03-05T09:53:40.864Z,4.70
2019-03-05T09:56:09.525Z,7.10
2019-03-05T09:58:41.027Z,4.50
2019-03-05T10:01:09.644Z,3.30
2019-03-05T10:03:39.712Z,2.53
2019-03-05T10:06:09.943Z,4.77
2019-03-05T10:08:39.297Z,5.40
2019-03-05T10:11:11.043Z,5.00
2019-03-05T10:13:40.074Z,5.17
2019-03-05T10:16:11.917Z,2.83
2019-03-05T10:18:43.485Z,12.37
2019-03-05T10:21:16.264Z,4.83
2019-03-05T10:23:48.517Z,3.30
2019-03-05T10:26:18.585Z,5.57
2019-03-05T10:28:50.414Z,4.93
2019-03-05T10:31:22.003Z,8.67
2019-03-05T10:33:50.622Z,6.40
2019-03-05T10:36:22.214Z,4.13
2019-03-05T10:38:57.342Z,2.17
2019-03-05T10:41:24.257Z,6.60
2019-03-05T10:43:55.525Z,3.90
2019-03-05T10:46:27.422Z,5.33
2019-03-05T10:48:55.978Z,4.07
2019-03-05T10:51:27.817Z,6.03
2019-03-05T10:53:56.544Z,4.70
2019-03-05T10:56:25.472Z,2.93
2019-03-05T10:58:56.744Z,4.40
2019-03-05T11:01:28.543Z,5.50
2019-03-05T11:03:57.367Z,2.47
2019-03-05T11:06:26.080Z,6.47
2019-03-05T11:08:54.726Z,3.03
2019-03-05T11:11:26.283Z,6.97
2019-03-05T11:13:57.961Z,3.30
2019-03-05T11:16:31.024Z,3.63
2019-03-05T11:19:02.831Z,4.80
2019-03-05T11:21:31.483Z,7.47
2019-03-05T11:24:03.069Z,3.27
2019-03-05T11:26:34.339Z,2.70
2019-03-05T11:29:07.079Z,8.80
2019-03-05T11:31:38.744Z,3.57
2019-03-05T11:34:10.119Z,2.40
2019-03-05T11:36:38.727Z,2.93
2019-03-05T11:39:10.410Z,4.60
2019-03-05T11:41:40.349Z,3.10
2019-03-05T11:44:10.604Z,5.23
2019-03-05T11:46:41.881Z,4.43
2019-03-05T11:49:13.368Z,2.90
2019-03-05T11:51:44.937Z,6.60
2019-03-05T11:54:16.313Z,3.93
2019-03-05T11:56:44.922Z,3.60
2019-03-05T11:59:16.294Z,2.93
2019-03-05T12:01:47.773Z,2.80
2019-03-05T12:04:21.604Z,6.77
2019-03-05T12:06:52.198Z,5.10
2019-03-05T12:09:21.501Z,2.20
2019-03-05T12:11:52.766Z,3.67
2019-03-05T12:14:24.551Z,3.90
2019-03-05T12:16:53.483Z,4.80
2019-03-05T12:19:25.011Z,5.73
2019-03-05T12:21:56.951Z,2.73
2019-03-05T12:24:28.732Z,4.40
2019-03-05T12:27:00.474Z,5.97
2019-03-05T12:29:31.894Z,5.10
2019-03-05T12:32:00.502Z,4.50
2019-03-05T12:34:32.103Z,6.03
2019-03-05T12:37:03.472Z,4.30
2019-03-05T12:39:34.781Z,3.87
2019-03-05T12:42:08.076Z,8.10
2019-03-05T12:44:42.042Z,3.87
2019-03-05T12:47:10.861Z,4.03
2019-03-05T12:49:42.555Z,5.43
2019-03-05T12:52:11.463Z,4.87
2019-03-05T12:54:43.235Z,3.33
2019-03-05T12:57:14.512Z,8.73
2019-03-05T12:59:46.093Z,4.70
2019-03-05T13:02:17.483Z,5.30
2019-03-05T13:04:48.852Z,5.60
2019-03-05T13:07:20.430Z,4.60
2019-03-05T13:09:52.647Z,2.40
2019-03-05T13:12:19.508Z,2.87
2019-03-05T13:14:50.867Z,5.73
2019-03-05T13:17:19.474Z,5.13
2019-03-05T13:19:53.489Z,2.87
2019-03-05T13:22:24.823Z,3.90
2019-03-05T13:24:57.335Z,5.17
2019-03-05T13:27:27.986Z,3.13
2019-03-05T13:29:59.521Z,2.70
2019-03-05T13:32:31.353Z,3.00
2019-03-05T13:35:02.780Z,4.53
2019-03-05T13:37:34.242Z,16.23
2019-03-05T13:40:11.988Z,3.27
2019-03-05T13:42:40.707Z,2.90
2019-03-05T13:45:12.794Z,3.03
2019-03-05T13:47:44.419Z,4.33
2019-03-05T13:50:30.985Z,7.27
2019-03-05T13:53:14.885Z,1.80
2019-03-05T13:55:50.490Z,5.43
2019-03-05T13:58:24.832Z,5.50
2019-03-05T14:00:56.413Z,11.83
2019-03-05T14:03:31.068Z,2.63
2019-03-05T14:06:37.256Z,6.80
2019-03-05T14:09:14.715Z,1.77
2019-03-05T14:11:48.186Z,6.23
2019-03-05T14:14:24.034Z,3.50
2019-03-05T14:16:57.858Z,2.17
2019-03-05T14:19:29.164Z,3.33
2019-03-05T14:21:57.724Z,11.20
2019-03-05T14:24:29.057Z,4.60
2019-03-05T14:27:00.695Z,5.07
2019-03-05T14:29:31.939Z,5.83
2019-03-05T14:32:03.261Z,7.03
2019-03-05T14:34:31.856Z,6.93
2019-03-05T14:37:00.457Z,3.47
2019-03-05T14:39:52.487Z,3.70
2019-03-05T14:42:24.136Z,3.30
2019-03-05T14:44:55.680Z,5.10
2019-03-05T14:47:27.575Z,5.10
2019-03-05T14:49:56.210Z,2.37
2019-03-05T14:52:27.755Z,1.87
2019-03-05T14:54:59.364Z,2.57
2019-03-05T14:57:30.623Z,1.63
2019-03-05T15:00:02.015Z,2.60
2019-03-05T15:02:33.695Z,4.90
2019-03-05T15:05:07.252Z,2.77
2019-03-05T15:07:35.783Z,3.23
2019-03-05T15:10:09.713Z,5.07
2019-03-05T15:12:41.461Z,9.73
2019-03-05T15:15:18.984Z,2.33
2019-03-05T15:17:51.003Z,1.90
2019-03-05T15:20:22.262Z,5.50
2019-03-05T15:22:54.095Z,2.47
2019-03-05T15:25:25.485Z,3.67
2019-03-05T15:27:57.064Z,3.73
2019-03-05T15:30:29.305Z,8.53
2019-03-05T15:33:01.219Z,4.60
2019-03-05T15:35:32.805Z,7.40
2019-03-05T15:38:04.091Z,4.73
2019-03-05T15:40:35.833Z,7.30
2019-03-05T15:43:07.416Z,7.93
2019-03-05T15:46:02.588Z,5.63
2019-03-05T15:48:34.191Z,6.00
2019-03-05T15:51:05.528Z,6.03
2019-03-05T15:53:37.223Z,6.23
2019-03-05T15:56:10.760Z,5.77
2019-03-05T15:58:42.070Z,5.47
2019-03-05T16:01:21.915Z,5.17
2019-03-05T16:03:46.832Z,3.63
2019-03-05T16:06:18.209Z,3.37
2019-03-05T16:08:47.277Z,6.40
2019-03-05T16:11:19.676Z,11.30
2019-03-05T16:13:52.405Z,8.70
2019-03-05T16:16:21.373Z,7.50
2019-03-05T16:18:53.056Z,7.10
2019-03-05T16:21:24.532Z,11.23
2019-03-05T16:23:55.805Z,10.30
2019-03-05T16:26:28.209Z,5.13
2019-03-05T16:28:59.989Z,7.00
2019-03-05T16:31:50.106Z,3.83
2019-03-05T16:34:24.375Z,5.73
2019-03-05T16:37:12.134Z,4.33
2019-03-05T16:39:42.477Z,6.50
2019-03-05T16:42:33.803Z,5.40
2019-03-05T16:45:08.874Z,4.10
2019-03-05T16:47:51.227Z,5.80
2019-03-05T16:50:21.584Z,6.40
2019-03-05T16:53:04.429Z,3.57
2019-03-05T16:55:43.845Z,4.70
2019-03-05T16:58:35.180Z,3.90
2019-03-05T17:01:23.716Z,3.40
2019-03-05T17:04:08.409Z,6.93
2019-03-05T17:06:38.758Z,6.30
2019-03-05T17:09:15.048Z,5.07
2019-03-05T17:11:58.501Z,10.00
2019-03-05T17:14:27.340Z,4.30
2019-03-05T17:16:55.898Z,1.73
2019-03-05T17:19:27.542Z,2.77
2019-03-05T17:21:56.249Z,5.40
2019-03-05T17:24:28.082Z,3.43
2019-03-05T17:26:59.609Z,3.30
2019-03-05T17:29:31.399Z,5.50
2019-03-05T17:32:02.976Z,4.50
2019-03-05T17:34:34.295Z,14.63
2019-03-05T17:37:02.925Z,13.40
2019-03-05T17:39:34.504Z,38.00
2019-03-05T17:42:05.790Z,7.20
2019-03-05T17:44:38.669Z,7.20
2019-03-05T17:47:10.233Z,12.90
2019-03-05T17:49:38.959Z,7.87
2019-03-05T17:52:07.583Z,5.83
2019-03-05T17:54:39.467Z,5.53
2019-03-05T17:57:10.684Z,8.53
2019-03-05T17:59:42.119Z,5.47
2019-03-05T18:02:13.902Z,6.37
2019-03-05T18:04:43.134Z,14.47
2019-03-05T18:07:12.098Z,17.10
2019-03-05T18:09:43.126Z,6.10
2019-03-05T18:12:14.704Z,7.30
2019-03-05T18:14:46.491Z,5.20
2019-03-05T18:17:15.804Z,7.70
2019-03-05T18:19:47.313Z,8.20
2019-03-05T18:22:19.321Z,6.37
2019-03-05T18:24:47.886Z,6.73
2019-03-05T18:27:20.027Z,5.80
2019-03-05T18:29:51.374Z,5.70
2019-03-05T18:32:22.885Z,6.70
2019-03-05T18:34:54.521Z,6.63
2019-03-05T18:37:26.085Z,8.90
2019-03-05T18:39:54.666Z,7.80
2019-03-05T18:42:26.191Z,7.33
2019-03-05T18:44:58.022Z,5.87
2019-03-05T18:47:26.742Z,6.03
2019-03-05T18:49:55.351Z,7.33
2019-03-05T18:52:23.966Z,6.97
2019-03-05T18:54:55.579Z,13.80
2019-03-05T18:57:24.137Z,6.30
2019-03-05T18:59:52.684Z,8.97
2019-03-05T19:02:21.634Z,6.43
2019-03-05T19:04:50.223Z,5.73
2019-03-05T19:07:19.660Z,4.63
2019-03-05T19:09:48.941Z,11.13
2019-03-05T19:12:25.993Z,6.80
2019-03-05T19:14:54.718Z,8.07
2019-03-05T19:17:24.316Z,10.57
2019-03-05T19:19:52.928Z,10.70
2019-03-05T19:22:21.930Z,8.23
2019-03-05T19:24:53.684Z,10.70
2019-03-05T19:27:26.779Z,7.90
2019-03-05T19:29:55.475Z,7.00
2019-03-05T19:32:25.381Z,6.80
2019-03-05T19:34:56.961Z,9.10
2019-03-05T19:37:27.079Z,6.77
2019-03-05T19:39:58.653Z,7.43
2019-03-05T19:42:30.747Z,10.90
2019-03-05T19:44:59.721Z,6.80
2019-03-05T19:47:30.973Z,7.83
2019-03-05T19:49:59.587Z,10.00
2019-03-05T19:52:28.573Z,7.33
2019-03-05T19:54:57.122Z,7.03
2019-03-05T19:57:25.772Z,8.27
2019-03-05T19:59:57.572Z,7.50
2019-03-05T20:02:28.823Z,5.70
2019-03-05T20:05:00.370Z,7.17
2019-03-05T20:07:29.411Z,8.67
2019-03-05T20:09:58.712Z,10.03
2019-03-05T20:12:27.532Z,8.23
2019-03-05T20:14:59.591Z,8.80
2019-03-05T20:17:28.302Z,7.30
2019-03-05T20:19:56.847Z,8.80
2019-03-05T20:22:25.430Z,10.57
2019-03-05T20:24:54.212Z,6.90
2019-03-05T20:27:23.220Z,6.63
2019-03-05T20:29:54.480Z,10.43
2019-03-05T20:32:23.881Z,10.47
2019-03-05T20:34:53.901Z,7.20
2019-03-05T20:37:22.483Z,8.60
2019-03-05T20:39:51.384Z,8.53
2019-03-05T20:42:20.236Z,8.63
2019-03-05T20:44:51.837Z,6.47
2019-03-05T20:47:20.461Z,9.83
2019-03-05T20:49:49.392Z,7.23
2019-03-05T20:52:18.128Z,8.03
2019-03-05T20:54:46.971Z,10.13
2019-03-05T20:57:15.697Z,8.50
2019-03-05T20:59:44.342Z,10.87
2019-03-05T21:02:12.999Z,9.60
2019-03-05T21:04:41.932Z,11.87
2019-03-05T21:07:10.468Z,9.20
2019-03-05T21:09:39.565Z,10.40
2019-03-05T21:12:09.938Z,11.77
2019-03-05T21:14:41.306Z,11.47
2019-03-05T21:17:09.896Z,12.90
2019-03-05T21:19:41.150Z,10.90
2019-03-05T21:22:09.779Z,12.47
2019-03-05T21:24:40.181Z,14.07
2019-03-05T21:27:11.685Z,12.60
2019-03-05T21:29:41.135Z,11.33
2019-03-05T21:32:10.079Z,16.50
2019-03-05T21:34:39.060Z,13.87
2019-03-05T21:37:08.165Z,16.00
2019-03-05T21:39:37.180Z,13.90
2019-03-05T21:42:08.810Z,10.10
2019-03-05T21:44:37.556Z,12.93
2019-03-05T21:47:08.856Z,10.60
2019-03-05T21:49:40.441Z,13.27
2019-03-05T21:52:10.534Z,12.80
2019-03-05T21:54:45.175Z,12.43
2019-03-05T21:57:16.758Z,13.73
2019-03-05T21:59:45.714Z,12.73
2019-03-05T22:02:17.265Z,14.30
2019-03-05T22:04:48.754Z,11.23
2019-03-05T22:07:20.428Z,12.80
2019-03-05T22:09:49.667Z,12.60
2019-03-05T22:12:21.145Z,14.30
2019-03-05T22:14:52.512Z,15.30
2019-03-05T22:17:24.061Z,18.60
2019-03-05T22:19:52.638Z,15.53
2019-03-05T22:22:24.292Z,19.23
2019-03-05T22:24:52.925Z,14.10
2019-03-05T22:27:24.300Z,13.77
2019-03-05T22:29:56.083Z,15.63
2019-03-05T22:32:27.392Z,18.57
2019-03-05T22:34:55.967Z,13.60
2019-03-05T22:37:27.793Z,21.27
2019-03-05T22:39:56.549Z,20.83
2019-03-05T22:42:28.041Z,18.67
2019-03-05T22:44:59.394Z,19.00
2019-03-05T22:47:28.025Z,17.80
2019-03-05T22:49:59.606Z,16.77
2019-03-05T22:52:30.877Z,17.43
2019-03-05T22:55:02.191Z,16.37
2019-03-05T22:57:33.559Z,22.30
2019-03-05T23:00:02.163Z,15.90
2019-03-05T23:02:34.012Z,15.27
2019-03-05T23:05:08.698Z,14.90
2019-03-05T23:07:38.879Z,16.30
2019-03-05T23:10:13.116Z,15.87
2019-03-05T23:12:41.732Z,14.87
2019-03-05T23:15:14.902Z,17.20
2019-03-05T23:17:46.587Z,15.33
2019-03-05T23:20:18.462Z,19.80
2019-03-05T23:22:50.319Z,14.83
2019-03-05T23:25:22.018Z,13.00
2019-03-05T23:27:50.603Z,12.20
2019-03-05T23:30:23.205Z,15.87
2019-03-05T23:32:54.917Z,18.30
2019-03-05T23:35:26.408Z,18.10
2019-03-05T23:37:57.622Z,14.73
2019-03-05T23:40:28.983Z,15.20
2019-03-05T23:43:00.287Z,15.13
2019-03-05T23:45:29.403Z,17.97
2019-03-05T23:48:00.949Z,17.67
2019-03-05T23:50:32.289Z,16.13
2019-03-05T23:53:03.787Z,12.70
2019-03-05T23:55:35.628Z,13.83
2019-03-05T23:58:04.321Z,13.83
